createdAt,value
2018-02-11T00:00:49.094Z,24.67
2018-02-11T00:05:52.158Z,23.90
2018-02-11T00:10:55.003Z,25.20
2018-02-11T00:15:58.403Z,23.37
2018-02-11T00:21:01.248Z,23.90
2018-02-11T00:26:04.002Z,23.80
2018-02-11T00:31:06.789Z,24.57
2018-02-11T00:36:09.727Z,24.37
2018-02-11T00:41:12.394Z,24.37
2018-02-11T00:46:15.950Z,23.73
2018-02-11T00:51:19.022Z,22.30
2018-02-11T00:56:22.739Z,24.93
2018-02-11T01:01:26.521Z,24.87
2018-02-11T01:06:29.612Z,24.17
2018-02-11T01:11:32.278Z,24.37
2018-02-11T01:16:36.497Z,24.90
2018-02-11T01:21:39.118Z,24.27
2018-02-11T01:26:42.741Z,22.47
2018-02-11T01:31:45.394Z,24.10
2018-02-11T01:36:48.669Z,25.10
2018-02-11T01:41:51.479Z,26.93
2018-02-11T01:46:54.723Z,25.70
2018-02-11T01:51:57.380Z,25.30
2018-02-11T01:57:00.912Z,27.97
2018-02-11T02:02:03.544Z,26.13
2018-02-11T02:07:06.387Z,26.30
2018-02-11T02:12:09.782Z,27.63
2018-02-11T02:17:13.764Z,28.10
2018-02-11T02:22:16.538Z,29.40
2018-02-11T02:27:19.855Z,27.57
2018-02-11T02:32:22.519Z,26.33
2018-02-11T02:37:25.931Z,27.53
2018-02-11T02:42:29.319Z,28.07
2018-02-11T02:47:33.007Z,26.90
2018-02-11T02:52:35.716Z,27.20
2018-02-11T02:57:39.098Z,27.47
2018-02-11T03:02:41.719Z,26.17
2018-02-11T03:07:45.282Z,26.67
2018-02-11T03:12:47.870Z,25.93
2018-02-11T03:17:50.565Z,25.83
2018-02-11T03:22:53.144Z,23.47
2018-02-11T03:27:56.723Z,24.77
2018-02-11T03:32:59.344Z,24.87
2018-02-11T03:38:03.679Z,26.37
2018-02-11T03:43:07.077Z,25.83
2018-02-11T03:48:10.509Z,24.57
2018-02-11T03:53:13.146Z,26.50
2018-02-11T03:58:16.611Z,24.90
2018-02-11T04:03:19.248Z,24.40
2018-02-11T04:08:22.699Z,24.77
2018-02-11T04:13:25.331Z,26.73
2018-02-11T04:18:28.871Z,25.73
2018-02-11T04:23:31.495Z,25.17
2018-02-11T04:28:34.360Z,25.00
2018-02-11T04:33:36.954Z,25.17
2018-02-11T04:38:39.731Z,26.00
2018-02-11T04:43:42.317Z,25.50
2018-02-11T04:48:45.925Z,25.70
2018-02-11T04:53:48.543Z,25.87
2018-02-11T04:58:51.803Z,24.67
2018-02-11T05:03:55.191Z,21.73
2018-02-11T05:08:58.791Z,23.63
2018-02-11T05:14:01.410Z,23.53
2018-02-11T05:19:04.741Z,24.57
2018-02-11T05:24:07.370Z,24.00
2018-02-11T05:29:10.877Z,23.60
2018-02-11T05:34:14.306Z,22.33
2018-02-11T05:39:17.770Z,25.57
2018-02-11T05:44:20.380Z,23.20
2018-02-11T05:49:23.255Z,23.93
2018-02-11T05:54:25.897Z,23.93
2018-02-11T05:59:29.479Z,23.47
2018-02-11T06:04:32.070Z,21.80
2018-02-11T06:09:35.538Z,23.67
2018-02-11T06:14:38.960Z,22.43
2018-02-11T06:19:42.701Z,22.97
2018-02-11T06:24:45.402Z,23.47
2018-02-11T06:29:48.528Z,21.70
2018-02-11T06:34:51.120Z,22.67
2018-02-11T06:39:54.702Z,22.90
2018-02-11T06:44:58.814Z,22.17
2018-02-11T06:50:02.108Z,22.97
2018-02-11T06:55:04.729Z,21.83
2018-02-11T07:00:08.582Z,22.30
2018-02-11T07:05:11.196Z,21.47
2018-02-11T07:10:14.848Z,21.53
2018-02-11T07:15:17.476Z,22.00
2018-02-11T07:20:21.364Z,24.93
2018-02-11T07:25:23.996Z,24.03
2018-02-11T07:30:26.992Z,23.63
2018-02-11T07:35:29.594Z,23.63
2018-02-11T07:40:32.938Z,22.40
2018-02-11T07:45:35.583Z,24.97
2018-02-11T07:50:38.841Z,19.97
2018-02-11T07:55:41.484Z,24.97
2018-02-11T08:00:44.259Z,23.37
2018-02-11T08:05:46.881Z,25.23
2018-02-11T08:10:49.948Z,22.60
2018-02-11T08:15:52.588Z,24.70
2018-02-11T08:20:55.217Z,26.33
2018-02-11T08:25:57.841Z,22.30
2018-02-11T08:31:01.412Z,28.57
2018-02-11T08:36:04.025Z,27.07
2018-02-11T08:41:07.416Z,26.87
2018-02-11T08:46:10.811Z,25.77
2018-02-11T08:51:14.667Z,26.30
2018-02-11T08:56:17.279Z,26.80
2018-02-11T09:01:20.704Z,22.50
2018-02-11T09:06:23.356Z,25.00
2018-02-11T09:11:26.625Z,26.50
2018-02-11T09:16:29.213Z,20.77
2018-02-11T09:21:32.059Z,18.93
2018-02-11T09:26:36.322Z,17.57
2018-02-11T09:31:40.351Z,21.77
2018-02-11T09:36:43.886Z,22.60
2018-02-11T09:41:47.484Z,22.20
2018-02-11T09:46:50.992Z,21.60
2018-02-11T09:51:56.472Z,20.00
2018-02-11T09:56:59.986Z,21.10
2018-02-11T10:02:03.531Z,13.90
2018-02-11T10:07:06.318Z,16.30
2018-02-11T10:12:10.005Z,18.27
2018-02-11T10:17:12.962Z,14.13
2018-02-11T10:22:16.334Z,10.90
2018-02-11T10:27:19.143Z,10.00
2018-02-11T10:32:22.906Z,9.37
2018-02-11T10:37:25.611Z,11.53
2018-02-11T10:42:29.306Z,8.60
2018-02-11T10:47:32.699Z,7.93
2018-02-11T10:52:36.215Z,6.43
2018-02-11T10:57:39.891Z,6.30
2018-02-11T11:02:43.579Z,6.77
2018-02-11T11:07:46.967Z,4.40
2018-02-11T11:12:50.448Z,6.50
2018-02-11T11:17:53.979Z,6.67
2018-02-11T11:23:03.242Z,7.00
2018-02-11T11:28:07.023Z,7.27
2018-02-11T11:33:11.351Z,7.50
2018-02-11T11:38:13.993Z,8.37
2018-02-11T11:43:17.411Z,9.83
2018-02-11T11:48:20.075Z,7.40
2018-02-11T11:53:22.858Z,11.17
2018-02-11T11:58:25.630Z,9.47
2018-02-11T12:03:30.258Z,9.60
2018-02-11T12:08:33.917Z,10.63
2018-02-11T12:13:38.416Z,9.40
2018-02-11T12:18:41.053Z,9.43
2018-02-11T12:23:44.781Z,7.17
2018-02-11T12:28:47.437Z,11.63
2018-02-11T12:33:51.641Z,9.40
2018-02-11T12:38:54.478Z,9.20
2018-02-11T12:43:58.330Z,9.17
2018-02-11T12:49:00.956Z,9.77
2018-02-11T12:54:04.127Z,9.77
2018-02-11T12:59:06.764Z,10.13
2018-02-11T13:04:11.123Z,10.73
2018-02-11T13:09:15.563Z,10.13
2018-02-11T13:14:19.405Z,9.87
2018-02-11T13:19:23.351Z,11.17
2018-02-11T13:24:26.552Z,11.20
2018-02-11T13:29:29.951Z,11.30
2018-02-11T13:34:33.597Z,11.40
2018-02-11T13:39:36.957Z,11.63
2018-02-11T13:44:41.870Z,10.77
2018-02-11T13:49:44.508Z,12.23
2018-02-11T13:54:47.450Z,11.63
2018-02-11T13:59:50.087Z,11.40
2018-02-11T14:04:55.131Z,8.60
2018-02-11T14:09:57.746Z,6.10
2018-02-11T14:15:00.542Z,6.03
2018-02-11T14:20:03.175Z,4.97
2018-02-11T14:25:07.932Z,7.33
2018-02-11T14:30:11.681Z,6.10
2018-02-11T14:35:14.579Z,7.77
2018-02-11T14:40:17.175Z,8.37
2018-02-11T14:45:21.256Z,7.57
2018-02-11T14:50:23.909Z,8.20
2018-02-11T14:55:27.148Z,7.70
2018-02-11T15:00:29.852Z,8.47
2018-02-11T15:05:33.916Z,8.03
2018-02-11T15:10:36.538Z,7.17
2018-02-11T15:15:39.287Z,7.97
2018-02-11T15:20:41.907Z,6.80
2018-02-11T15:25:45.402Z,5.50
2018-02-11T15:30:48.056Z,6.77
2018-02-11T15:35:51.512Z,6.90
2018-02-11T15:40:55.039Z,5.63
2018-02-11T15:45:57.928Z,5.67
2018-02-11T15:51:00.644Z,5.00
2018-02-11T15:56:03.855Z,5.63
2018-02-11T16:01:06.609Z,6.97
2018-02-11T16:06:09.793Z,8.03
2018-02-11T16:11:12.408Z,7.47
2018-02-11T16:16:15.064Z,6.10
2018-02-11T16:21:17.868Z,9.00
2018-02-11T16:26:21.319Z,8.67
2018-02-11T16:31:23.957Z,8.27
2018-02-11T16:36:27.497Z,6.23
2018-02-11T16:41:31.127Z,7.13
2018-02-11T16:46:34.416Z,8.77
2018-02-11T16:51:37.152Z,9.60
2018-02-11T16:56:40.598Z,9.13
2018-02-11T17:01:43.363Z,6.13
2018-02-11T17:06:46.692Z,9.83
2018-02-11T17:11:49.330Z,8.83
2018-02-11T17:16:52.183Z,9.23
2018-02-11T17:21:54.792Z,10.33
2018-02-11T17:26:58.341Z,7.30
2018-02-11T17:32:01.102Z,10.83
2018-02-11T17:37:04.543Z,8.67
2018-02-11T17:42:07.352Z,9.77
2018-02-11T17:47:10.817Z,8.90
2018-02-11T17:52:14.204Z,9.80
2018-02-11T17:57:17.150Z,10.27
2018-02-11T18:02:20.698Z,9.23
2018-02-11T18:07:24.071Z,9.30
2018-02-11T18:12:26.878Z,9.43
2018-02-11T18:17:31.344Z,9.00
2018-02-11T18:22:34.105Z,8.43
2018-02-11T18:27:38.564Z,9.20
2018-02-11T18:32:42.109Z,8.30
2018-02-11T18:37:45.525Z,7.27
2018-02-11T18:42:48.222Z,6.67
2018-02-11T18:47:51.770Z,8.20
2018-02-11T18:52:54.551Z,7.87
2018-02-11T18:57:57.782Z,8.57
2018-02-11T19:03:00.444Z,8.73
2018-02-11T19:08:04.186Z,8.53
2018-02-11T19:13:06.904Z,8.50
2018-02-11T19:18:09.529Z,9.17
2018-02-11T19:23:12.320Z,8.80
2018-02-11T19:28:15.189Z,8.33
2018-02-11T19:33:17.863Z,8.60
2018-02-11T19:38:22.192Z,9.27
2018-02-11T19:43:26.483Z,9.97
2018-02-11T19:48:29.822Z,9.17
2018-02-11T19:53:32.425Z,9.33
2018-02-11T19:58:36.071Z,9.80
2018-02-11T20:03:38.931Z,9.80
2018-02-11T20:08:41.824Z,8.80
2018-02-11T20:13:44.651Z,6.90
2018-02-11T20:18:47.908Z,7.37
2018-02-11T20:23:51.314Z,8.07
2018-02-11T20:28:55.318Z,7.80
2018-02-11T20:33:58.209Z,7.20
2018-02-11T20:39:01.244Z,7.20
2018-02-11T20:44:03.881Z,6.90
2018-02-11T20:49:07.741Z,8.97
2018-02-11T20:54:10.346Z,7.57
2018-02-11T20:59:13.422Z,8.57
2018-02-11T21:04:17.207Z,7.17
2018-02-11T21:09:20.766Z,7.37
2018-02-11T21:14:23.383Z,7.27
2018-02-11T21:19:26.647Z,6.77
2018-02-11T21:24:30.813Z,7.30
2018-02-11T21:29:33.721Z,7.03
2018-02-11T21:34:36.409Z,6.73
2018-02-11T21:39:39.990Z,6.47
2018-02-11T21:44:42.628Z,6.57
2018-02-11T21:49:47.081Z,6.27
2018-02-11T21:54:49.882Z,7.07
2018-02-11T21:59:53.061Z,5.60
2018-02-11T22:04:56.614Z,6.40
2018-02-11T22:10:01.416Z,6.57
2018-02-11T22:15:04.173Z,6.20
2018-02-11T22:20:07.460Z,5.87
2018-02-11T22:25:10.878Z,6.27
2018-02-11T22:30:14.767Z,6.07
2018-02-11T22:35:17.423Z,4.73
2018-02-11T22:40:20.676Z,6.20
2018-02-11T22:45:23.359Z,6.33
2018-02-11T22:50:26.351Z,5.20
2018-02-11T22:55:29.050Z,7.20
2018-02-11T23:00:32.629Z,6.93
2018-02-11T23:05:35.267Z,6.47
2018-02-11T23:10:38.110Z,7.33
2018-02-11T23:15:40.743Z,6.27
2018-02-11T23:20:44.080Z,6.77
2018-02-11T23:25:46.710Z,7.50
2018-02-11T23:30:49.842Z,7.40
2018-02-11T23:35:52.781Z,7.80
2018-02-11T23:40:56.602Z,8.40
2018-02-11T23:46:00.322Z,6.40
2018-02-11T23:51:03.461Z,9.07
2018-02-11T23:56:06.398Z,6.30
